• Join FlightAware (Why Join?)
  • Login
  • US Flag 
10:34PM EDT


 

Airport Tracker/Info


-or-


 

Live Flight TrackerFlight Track Log ✈ N1250V ✈ 21-Dec-2013 ✈ KLUK - KAPF

Flight Track Log - Related Links

Times and Time Zones

All times are in EST time to prevent confusion due to time zone crossing. See the N1250V flight status page for this flight to view local times or setup timezone preferences in your user account.

Time Position Orientation Groundspeed Altitude Reporting Facility
EST Latitude Longitude Course Direction KTS MPH feet Rate Location/Type
10:31AM 39.0833 -84.4167 201° Southwest 128 147 1,000  Level Cincinnati TRACON
10:32AM 39.0500 -84.4333 201° Southwest 170 196 2,500 720 Climbing Cincinnati TRACON
10:33AM 39.0000 -84.4500 195° South 190 219 2,500 1,020 Level Cincinnati TRACON
10:34AM 38.9500 -84.4667 195° South 184 212 4,400 2,100 Climbing Cincinnati TRACON
10:34AM 38.9200 -84.4872 208° Southwest 154 177 6,300 1,980 Climbing Indianapolis Center
10:35AM 38.8758 -84.5022 195° South 163 188 8,300 1,860 Climbing Indianapolis Center
10:36AM 38.8289 -84.5172 194° South 172 198 10,200 1,920 Climbing Indianapolis Center
10:38AM 38.7664 -84.5308 190° South 190 219 12,400 1,920 Climbing Indianapolis Center
10:39AM 38.7089 -84.5144 167° South 209 241 14,200 1,440 Climbing Indianapolis Center
10:40AM 38.6533 -84.4989 168° South 204 235 15,400 1,200 Climbing Indianapolis Center
10:41AM 38.5939 -84.4842 169° South 205 236 16,800 1,140 Climbing Indianapolis Center
10:42AM 38.5358 -84.4744 173° South 208 239 17,800 1,020 Climbing Indianapolis Center
10:43AM 38.4767 -84.4628 171° South 213 245 19,000 1,020 Climbing Indianapolis Center
10:44AM 38.4178 -84.4444 166° South 217 250 20,000 960 Climbing Indianapolis Center
10:45AM 38.3558 -84.4344 173° South 223 257 21,000 1,020 Climbing Indianapolis Center
10:46AM 38.2781 -84.4136 168° South 242 278 22,100 1,020 Climbing Indianapolis Center
10:47AM 38.2058 -84.3997 171° South 257 296 23,100 840 Climbing Indianapolis Center
10:48AM 38.1319 -84.3822 169° South 268 308 23,900 780 Climbing Indianapolis Center
10:49AM 38.0550 -84.3650 170° South 278 320 24,700 480 Climbing Indianapolis Center
10:50AM 37.9736 -84.3472 170° South 295 339 25,000 540 Climbing Indianapolis Center
10:51AM 37.8892 -84.3275 170° South 307 353 25,900 720 Climbing Indianapolis Center
10:52AM 37.8061 -84.3106 171° South 304 350 26,500 540 Climbing Indianapolis Center
10:53AM 37.7075 -84.2875 170° South 308 354 27,100 660 Climbing Indianapolis Center
10:54AM 37.6231 -84.2686 170° South 308 354 27,900 780 Climbing Indianapolis Center
10:55AM 37.5411 -84.2489 169° South 301 346 28,700 780 Climbing Indianapolis Center
10:56AM 37.4603 -84.2322 171° South 296 341 29,500 720 Climbing Indianapolis Center
10:57AM 37.3833 -84.2147 170° South 285 328 30,200 600 Climbing Indianapolis Center
10:58AM 37.3047 -84.1972 170° South 285 328 30,800 480 Climbing Indianapolis Center
10:59AM 37.2139 -84.1775 170° South 284 327 31,300 480 Climbing Indianapolis Center
11:00AM 37.1375 -84.1606 170° South 282 325 31,800 420 Climbing Indianapolis Center
11:01AM 37.0586 -84.1425 170° South 285 328 32,200 360 Climbing Indianapolis Center
11:02AM 36.9786 -84.1261 171° South 289 333 32,600 360 Climbing Indianapolis Center
11:03AM 36.8997 -84.1086 170° South 289 333 33,000 180 Climbing Indianapolis Center
11:04AM 36.8167 -84.0914 171° South 298 343 33,000  Level Indianapolis Center
11:05AM 36.7311 -84.0728 170° South 309 356 33,000  Level Indianapolis Center
11:06AM 36.6317 -84.0733 180° South 304 350 33,000  Level Indianapolis Center
11:07AM 36.5489 -84.0842 186° South 301 346 33,000  Level Indianapolis Center
11:08AM 36.4717 -84.0947 186° South 306 352 33,000  Level Indianapolis Center
11:09AM 36.3672 -84.1067 185° South 311 358 33,000  Level Indianapolis Center
11:10AM 36.2806 -84.1175 186° South 313 360 33,000  Level Indianapolis Center
11:11AM 36.1939 -84.1289 186° South 311 358 33,000  Level Indianapolis Center
11:12AM 36.1072 -84.1381 185° South 311 358 33,000  Level Indianapolis Center
11:13AM 36.0519 -84.1467 187° South 311 358 33,000  Level Atlanta Center
11:14AM 35.9664 -84.1567 185° South 311 358 33,000  Level Atlanta Center
11:15AM 35.8808 -84.1669 186° South 311 358 33,000  Level Atlanta Center
11:16AM 35.7953 -84.1769 185° South 311 358 33,000  Level Atlanta Center
11:17AM 35.7119 -84.1869 186° South 311 358 33,000  Level Atlanta Center
11:18AM 35.6264 -84.1997 187° South 311 358 33,000  Level Atlanta Center
11:19AM 35.5408 -84.2072 184° South 311 358 33,000  Level Atlanta Center
11:20AM 35.4572 -84.2197 187° South 311 358 33,000 180 Level Atlanta Center
11:21AM 35.3761 -84.2297 186° South 311 358 33,400 300 Climbing Atlanta Center
11:22AM 35.2925 -84.2397 186° South 311 358 33,700 300 Climbing Atlanta Center
11:23AM 35.2133 -84.2497 186° South 306 352 34,000 360 Climbing Atlanta Center
11:24AM 35.1339 -84.2597 186° South 301 346 34,500 360 Climbing Atlanta Center
11:25AM 35.0547 -84.2697 186° South 290 334 34,800 240 Climbing Atlanta Center
11:26AM 34.9772 -84.2769 184° South 290 334 35,000 60 Climbing Atlanta Center
11:27AM 34.8939 -84.2869 186° South 285 328 35,000  Level Atlanta Center
11:28AM 34.8125 -84.2944 184° South 290 334 35,000  Level Atlanta Center
11:29AM 34.7289 -84.3042 185° South 295 339 35,000  Level Atlanta Center
11:30AM 34.6456 -84.3164 187° South 295 339 35,000  Level Atlanta Center
11:31AM 34.5578 -84.3264 185° South 301 346 35,000  Level Atlanta Center
11:32AM 34.4742 -84.3361 185° South 307 353 35,000  Level Atlanta Center
11:33AM 34.3969 -84.3458 186° South 312 359 35,000  Level Atlanta Center
11:34AM 34.3114 -84.3556 185° South 312 359 35,000  Level Atlanta Center
11:35AM 34.2281 -84.3653 186° South 312 359 35,000  Level Atlanta Center
11:36AM 34.1467 -84.3750 186° South 312 359 35,000  Level Atlanta Center
11:37AM 34.0547 -84.3872 186° South 317 365 35,000  Level Atlanta Center
11:38AM 33.9692 -84.3994 187° South 317 365 35,000  Level Atlanta Center
11:39AM 33.8856 -84.4017 181° South 310 357 35,000  Level Atlanta Center
11:40AM 33.7917 -84.4014 180° South 318 366 35,000  Level Atlanta Center
11:41AM 33.6956 -84.4008 180° South 324 373 35,000  Level Atlanta Center
11:42AM 33.6164 -84.4006 180° South 324 373 35,000  Level Atlanta Center
11:43AM 33.5286 -84.4003 180° South 324 373 35,000  Level Atlanta Center
11:44AM 33.4431 -84.3972 178° South 324 373 35,000  Level Atlanta Center
11:45AM 33.3553 -84.3994 181° South 319 367 35,000  Level Atlanta Center
11:46AM 33.2697 -84.3992 180° South 314 361 35,000  Level Atlanta Center
11:47AM 33.1800 -84.3986 180° South 314 361 35,000  Level Atlanta Center
11:48AM 33.0944 -84.3958 178° South 314 361 35,000  Level Atlanta Center
11:49AM 32.9983 -84.3981 181° South 309 356 35,000  Level Atlanta Center
11:50AM 32.9128 -84.3975 180° South 309 356 35,000  Level Atlanta Center
11:51AM 32.8231 -84.3972 180° South 309 356 35,000  Level Atlanta Center
11:52AM 32.7458 -84.3944 178° South 309 356 35,000  Level Atlanta Center
11:53AM 32.6603 -84.3917 178° South 309 356 35,000  Level Atlanta Center
11:54AM 32.5728 -84.3914 180° South 309 356 35,000  Level Atlanta Center
11:55AM 32.4872 -84.3911 180° South 309 356 35,000  Level Atlanta Center
11:56AM 32.4014 -84.3906 180° South 309 356 35,000  Level Atlanta Center
11:57AM 32.3139 -84.3903 180° South 309 356 35,000  Level Atlanta Center
11:59AM 32.1389 -84.3892 180° South 302 348 35,000  Level Jacksonville Center
12:00PM 32.0514 -84.3756 172° South 307 353 35,000  Level Jacksonville Center
12:01PM 31.9639 -84.3544 168° South 319 367 35,000  Level Jacksonville Center
12:02PM 31.8744 -84.3358 170° South 324 373 35,000  Level Jacksonville Center
12:03PM 31.7869 -84.3175 170° South 324 373 35,000  Level Jacksonville Center
12:04PM 31.6972 -84.2989 170° South 324 373 35,000  Level Jacksonville Center
12:05PM 31.6078 -84.2806 170° South 329 379 35,000  Level Jacksonville Center
12:06PM 31.5203 -84.2597 169° South 329 379 35,000  Level Jacksonville Center
12:07PM 31.4308 -84.2414 170° South 329 379 35,000  Level Jacksonville Center
12:08PM 31.3411 -84.2231 170° South 329 379 35,000  Level Jacksonville Center
12:09PM 31.2536 -84.2025 169° South 329 379 35,000  Level Jacksonville Center
12:10PM 31.1642 -84.1817 169° South 329 379 35,000  Level Jacksonville Center
12:11PM 31.0725 -84.1636 170° South 334 384 35,000  Level Jacksonville Center
12:12PM 30.9828 -84.1453 170° South 334 384 35,000  Level Jacksonville Center
12:13PM 30.8933 -84.1247 169° South 334 384 35,000  Level Jacksonville Center
12:14PM 30.8036 -84.1044 169° South 334 384 35,000  Level Jacksonville Center
12:15PM 30.7119 -84.0839 169° South 334 384 35,000  Level Jacksonville Center
12:16PM 30.6222 -84.0658 170° South 334 384 35,000  Level Jacksonville Center
12:17PM 30.5369 -84.0478 170° South 329 379 35,000  Level Jacksonville Center
12:18PM 30.4453 -84.0297 170° South 329 379 35,000  Level Jacksonville Center
12:19PM 30.3556 -84.0094 169° South 329 379 35,000  Level Jacksonville Center
12:20PM 30.2722 -83.9917 170° South 337 388 35,000  Level Jacksonville Center
12:21PM 30.1825 -83.9714 169° South 337 388 35,000  Level Jacksonville Center
12:22PM 30.0950 -83.9514 169° South 332 382 35,000  Level Jacksonville Center
12:23PM 30.0056 -83.9217 164° South 332 382 35,000  Level Jacksonville Center
12:24PM 29.9161 -83.8942 165° South 332 382 35,000  Level Jacksonville Center
12:25PM 29.8286 -83.8647 164° South 332 382 35,000  Level Jacksonville Center
12:26PM 29.7389 -83.8350 164° South 337 388 35,000  Level Jacksonville Center
12:27PM 29.6494 -83.8056 164° South 337 388 35,000  Level Jacksonville Center
12:28PM 29.5619 -83.7783 165° South 337 388 35,000  Level Jacksonville Center
12:29PM 29.4744 -83.7489 164° South 337 388 35,000  Level Jacksonville Center
12:30PM 29.3850 -83.7197 164° South 337 388 35,000  Level Jacksonville Center
12:31PM 29.2975 -83.6928 165° South 337 388 35,000  Level Jacksonville Center
12:32PM 29.2119 -83.6633 163° South 337 388 35,000  Level Jacksonville Center
12:33PM 29.1225 -83.6367 165° South 337 388 35,000  Level Jacksonville Center
12:34PM 29.0369 -83.6075 163° South 331 381 35,000  Level Jacksonville Center
12:35PM 28.9494 -83.5808 165° South 331 381 35,000  Level Jacksonville Center
12:36PM 28.8600 -83.5492 163° South 331 381 35,000  Level Jacksonville Center
12:39PM 28.5456 -83.4481 164° South 333 383 35,000  Level Miami Center
12:40PM 28.4589 -83.4264 168° South 333 383 35,000  Level Miami Center
12:41PM 28.3708 -83.3908 160° South 333 383 35,000  Level Miami Center
12:42PM 28.2989 -83.3722 167° South 333 383 35,000 -360 Level Miami Center
12:43PM 28.1989 -83.3667 177° South 333 383 34,300 -1,080 Descending Miami Center
12:44PM 28.1028 -83.3728 183° South 338 389 32,900 -1,200 Descending Miami Center
12:45PM 28.0008 -83.3692 178° South 356 410 32,000 -900 Descending Miami Center
12:46PM 27.8986 -83.3658 178° South 361 415 31,100 -900 Descending Miami Center
12:47PM 27.8092 -83.3183 155° Southeast 356 410 30,200 -900 Descending Miami Center
12:48PM 27.7267 -83.2506 144° Southeast 356 410 29,300 -900 Descending Miami Center
12:49PM 27.6400 -83.1800 144° Southeast 363 418 28,500 -1,020 Descending Miami Center
12:50PM 27.5556 -83.1097 144° Southeast 378 435 27,300 -1,380 Descending Miami Center
12:51PM 27.4686 -83.0419 145° Southeast 383 441 25,800 -1,500 Descending Miami Center
12:52PM 27.3861 -82.9744 144° Southeast 382 440 24,400 -1,440 Descending Miami Center
12:53PM 27.3053 -82.9117 145° Southeast 372 428 23,000 -1,440 Descending Miami Center
12:54PM 27.2286 -82.8469 143° Southeast 360 414 21,600 -1,380 Descending Miami Center
12:55PM 27.1519 -82.7847 144° Southeast 355 409 20,300 -1,140 Descending Miami Center
12:56PM 27.0772 -82.7250 145° Southeast 344 396 19,400 -1,200 Descending Miami Center
12:57PM 27.0022 -82.6678 146° Southeast 338 389 18,000 -1,320 Descending Miami Center
12:58PM 26.9294 -82.6081 144° Southeast 331 381 16,800 -1,500 Descending Miami Center
12:59PM 26.8608 -82.5536 145° Southeast 318 366 15,100 -1,800 Descending Miami Center
01:00PM 26.7939 -82.4992 144° Southeast 300 345 13,300 -1,620 Descending Miami Center
01:01PM 26.7272 -82.4472 145° Southeast 300 345 11,900 -1,380 Descending Miami Center
01:02PM 26.6603 -82.3953 145° Southeast 285 328 10,600 -1,140 Descending Miami Center
01:03PM 26.5994 -82.3483 145° Southeast 273 314 9,700 -1,020 Descending Miami Center
01:04PM 26.5364 -82.3033 147° Southeast 268 308 8,600 -1,020 Descending Miami Center
01:05PM 26.4756 -82.2567 146° Southeast 268 308 7,700 -900 Descending Miami Center
01:06PM 26.4186 -82.2169 148° Southeast 261 300 6,900 -840 Descending Miami Center
01:08PM 26.3477 -82.1623 145° Southeast  Level FlightAware Approximate
01:15PM 26.1524 -81.7756 66° East  Level Estimated
01:16PM 26.1524 -81.7756 66° East  Level Estimated
01:17PM 26.1524 -81.7756 66° East  Level Estimated
01:18PM 26.1524 -81.7756 66° East  Level Estimated
01:19PM 26.1524 -81.7756 66° East  Level Estimated
01:20PM 26.1524 -81.7756 66° East  Level Estimated
01:21PM 26.1524 -81.7756 66° East  Level Estimated
01:22PM 26.1524 -81.7756 66° East  Level Estimated
01:23PM 26.1524 -81.7756 66° East  Level Estimated
01:24PM 26.1524 -81.7756 66° East  Level Estimated
01:25PM 26.1524 -81.7756 66° East  Level Estimated